sensor_id;sensor_type;location;lat;lon;timestamp;temperature;humidity
1005;DHT22;491;53.480;10.174;2023-04-03T01:25:58;3.80;99.90
1005;DHT22;491;53.480;10.174;2023-04-03T01:28:29;3.70;99.90
1005;DHT22;491;53.480;10.174;2023-04-03T01:31:00;3.60;99.90
1005;DHT22;491;53.480;10.174;2023-04-03T01:33:28;3.60;99.90
1005;DHT22;491;53.480;10.174;2023-04-03T01:35:54;3.60;99.90
1005;DHT22;491;53.480;10.174;2023-04-03T01:38:19;3.60;1.00
1005;DHT22;491;53.480;10.174;2023-04-03T01:40:45;3.60;1.00
1005;DHT22;491;53.480;10.174;2023-04-03T01:43:11;3.60;1.00
1005;DHT22;491;53.480;10.174;2023-04-03T01:45:36;3.60;99.90
1005;DHT22;491;53.480;10.174;2023-04-03T01:48:02;3.60;99.90
1005;DHT22;491;53.480;10.174;2023-04-03T01:50:28;3.50;99.90
1005;DHT22;491;53.480;10.174;2023-04-03T01:52:53;3.40;99.90
1005;DHT22;491;53.480;10.174;2023-04-03T01:55:19;3.40;99.90
1005;DHT22;491;53.480;10.174;2023-04-03T01:57:44;3.30;99.90
1005;DHT22;491;53.480;10.174;2023-04-03T02:00:10;3.20;1.00
1005;DHT22;491;53.480;10.174;2023-04-03T02:02:35;3.20;1.00
1005;DHT22;491;53.480;10.174;2023-04-03T02:05:01;3.20;1.00
1005;DHT22;491;53.480;10.174;2023-04-03T02:07:26;3.20;1.00
1005;DHT22;491;53.480;10.174;2023-04-03T02:09:52;3.20;1.00
1005;DHT22;491;53.480;10.174;2023-04-03T02:12:17;3.10;1.00
1005;DHT22;491;53.480;10.174;2023-04-03T02:14:43;3.10;1.00
1005;DHT22;491;53.480;10.174;2023-04-03T02:17:08;3.20;1.00
1005;DHT22;491;53.480;10.174;2023-04-03T02:19:35;3.10;1.00
1005;DHT22;491;53.480;10.174;2023-04-03T02:22:02;3.20;1.00
1005;DHT22;491;53.480;10.174;2023-04-03T02:24:27;3.20;1.00
1005;DHT22;491;53.480;10.174;2023-04-03T02:26:53;3.20;1.00
1005;DHT22;491;53.480;10.174;2023-04-03T02:29:21;3.20;1.00
1005;DHT22;491;53.480;10.174;2023-04-03T02:31:47;3.10;1.00
1005;DHT22;491;53.480;10.174;2023-04-03T02:34:13;3.10;1.00
1005;DHT22;491;53.480;10.174;2023-04-03T02:36:38;3.20;1.00
1005;DHT22;491;53.480;10.174;2023-04-03T02:39:04;3.10;1.00
1005;DHT22;491;53.480;10.174;2023-04-03T02:41:30;3.10;1.00
1005;DHT22;491;53.480;10.174;2023-04-03T02:44:01;3.20;1.00
1005;DHT22;491;53.480;10.174;2023-04-03T02:46:27;3.20;1.00
1005;DHT22;491;53.480;10.174;2023-04-03T02:48:53;3.20;1.00
1005;DHT22;491;53.480;10.174;2023-04-03T02:51:18;3.10;1.00
1005;DHT22;491;53.480;10.174;2023-04-03T02:53:44;3.20;1.00
1005;DHT22;491;53.480;10.174;2023-04-03T02:56:09;3.20;1.00
1005;DHT22;491;53.480;10.174;2023-04-03T02:58:35;3.20;1.00
1005;DHT22;491;53.480;10.174;2023-04-03T03:01:01;3.20;1.00
1005;DHT22;491;53.480;10.174;2023-04-03T03:03:26;3.00;1.00
1005;DHT22;491;53.480;10.174;2023-04-03T03:06:02;3.10;1.00
1005;DHT22;491;53.480;10.174;2023-04-03T03:08:27;3.10;1.00
1005;DHT22;491;53.480;10.174;2023-04-03T03:10:53;3.20;1.00
1005;DHT22;491;53.480;10.174;2023-04-03T03:13:18;3.10;1.00
1005;DHT22;491;53.480;10.174;2023-04-03T03:15:44;3.20;1.00
1005;DHT22;491;53.480;10.174;2023-04-03T03:18:09;3.10;1.00
1005;DHT22;491;53.480;10.174;2023-04-03T03:20:35;3.10;1.00
1005;DHT22;491;53.480;10.174;2023-04-03T03:23:00;3.10;1.00
1005;DHT22;491;53.480;10.174;2023-04-03T03:25:26;3.00;1.00
1005;DHT22;491;53.480;10.174;2023-04-03T05:00:19;1.60;1.00
1005;DHT22;491;53.480;10.174;2023-04-03T05:02:45;1.90;1.00
1005;DHT22;491;53.480;10.174;2023-04-03T05:05:11;1.80;1.00
1005;DHT22;491;53.480;10.174;2023-04-03T05:07:36;1.80;1.00
1005;DHT22;491;53.480;10.174;2023-04-03T05:10:03;1.80;1.00
1005;DHT22;491;53.480;10.174;2023-04-03T05:12:29;1.80;1.00
1005;DHT22;491;53.480;10.174;2023-04-03T05:14:54;1.70;1.00
1005;DHT22;491;53.480;10.174;2023-04-03T05:17:20;1.70;1.00
1005;DHT22;491;53.480;10.174;2023-04-03T05:19:45;1.70;1.00
1005;DHT22;491;53.480;10.174;2023-04-03T05:22:11;1.70;1.00
1005;DHT22;491;53.480;10.174;2023-04-03T05:24:36;1.80;1.00
1005;DHT22;491;53.480;10.174;2023-04-03T05:27:02;1.80;1.00
1005;DHT22;491;53.480;10.174;2023-04-03T05:29:27;1.80;1.00
1005;DHT22;491;53.480;10.174;2023-04-03T05:31:53;1.80;1.00
1005;DHT22;491;53.480;10.174;2023-04-03T05:34:21;1.80;1.00
1005;DHT22;491;53.480;10.174;2023-04-03T05:36:47;1.90;1.00
1005;DHT22;491;53.480;10.174;2023-04-03T05:39:12;2.00;1.00
1005;DHT22;491;53.480;10.174;2023-04-03T05:41:38;2.00;1.00
1005;DHT22;491;53.480;10.174;2023-04-03T05:44:06;1.90;1.00
1005;DHT22;491;53.480;10.174;2023-04-03T05:46:31;2.10;1.00
1005;DHT22;491;53.480;10.174;2023-04-03T05:48:57;2.10;1.00
1005;DHT22;491;53.480;10.174;2023-04-03T05:51:25;2.20;1.00
1005;DHT22;491;53.480;10.174;2023-04-03T05:53:59;2.20;1.00
1005;DHT22;491;53.480;10.174;2023-04-03T05:56:26;2.30;1.00
1005;DHT22;491;53.480;10.174;2023-04-03T05:58:51;2.40;1.00
1005;DHT22;491;53.480;10.174;2023-04-03T06:01:17;2.40;1.00
1005;DHT22;491;53.480;10.174;2023-04-03T06:03:42;2.50;1.00
1005;DHT22;491;53.480;10.174;2023-04-03T06:06:08;2.50;1.00
1005;DHT22;491;53.480;10.174;2023-04-03T06:08:37;2.60;1.00
1005;DHT22;491;53.480;10.174;2023-04-03T06:11:03;2.60;1.00
1005;DHT22;491;53.480;10.174;2023-04-03T06:13:29;2.80;1.00
1005;DHT22;491;53.480;10.174;2023-04-03T06:16:01;2.90;1.00
1005;DHT22;491;53.480;10.174;2023-04-03T06:18:27;3.00;1.00
1005;DHT22;491;53.480;10.174;2023-04-03T06:20:53;3.20;1.00
1005;DHT22;491;53.480;10.174;2023-04-03T06:23:18;3.40;1.00
1005;DHT22;491;53.480;10.174;2023-04-03T06:25:44;3.80;4.60
1005;DHT22;491;53.480;10.174;2023-04-03T06:28:09;4.30;22.40
1005;DHT22;491;53.480;10.174;2023-04-03T06:30:35;4.90;13.00
1005;DHT22;491;53.480;10.174;2023-04-03T06:33:02;5.50;1.00
1005;DHT22;491;53.480;10.174;2023-04-03T06:35:33;6.10;1.00
1005;DHT22;491;53.480;10.174;2023-04-03T06:38:00;7.00;99.90
1005;DHT22;491;53.480;10.174;2023-04-03T06:40:25;7.80;99.90
1005;DHT22;491;53.480;10.174;2023-04-03T06:42:51;8.70;99.90
1005;DHT22;491;53.480;10.174;2023-04-03T06:45:17;9.50;1.00
1005;DHT22;491;53.480;10.174;2023-04-03T06:47:43;10.20;99.90
1005;DHT22;491;53.480;10.174;2023-04-03T06:50:10;10.60;1.00
1005;DHT22;491;53.480;10.174;2023-04-03T06:52:37;11.20;1.00
1005;DHT22;491;53.480;10.174;2023-04-03T06:55:03;11.70;1.00
1005;DHT22;491;53.480;10.174;2023-04-03T06:57:29;12.00;1.00
1005;DHT22;491;53.480;10.174;2023-04-03T06:59:54;12.30;1.00
1005;DHT22;491;53.480;10.174;2023-04-03T07:02:20;12.70;1.00
1005;DHT22;491;53.480;10.174;2023-04-03T07:04:47;12.80;1.00
1005;DHT22;491;53.480;10.174;2023-04-03T07:07:15;12.70;1.00
1005;DHT22;491;53.480;10.174;2023-04-03T07:09:40;12.80;1.00
1005;DHT22;491;53.480;10.174;2023-04-03T07:12:07;13.10;1.00
1005;DHT22;491;53.480;10.174;2023-04-03T07:14:33;13.40;1.00
1005;DHT22;491;53.480;10.174;2023-04-03T07:16:58;13.20;1.00
1005;DHT22;491;53.480;10.174;2023-04-03T07:19:24;14.10;1.00
1005;DHT22;491;53.480;10.174;2023-04-03T07:21:52;14.40;1.00
1005;DHT22;491;53.480;10.174;2023-04-03T07:24:18;14.70;1.00
1005;DHT22;491;53.480;10.174;2023-04-03T07:26:43;14.90;1.00
1005;DHT22;491;53.480;10.174;2023-04-03T07:29:10;15.10;1.00
1005;DHT22;491;53.480;10.174;2023-04-03T07:31:36;15.30;1.00
1005;DHT22;491;53.480;10.174;2023-04-03T07:56:04;16.80;1.00
1005;DHT22;491;53.480;10.174;2023-04-03T08:50:29;19.30;1.00
1005;DHT22;491;53.480;10.174;2023-04-03T08:52:58;19.00;1.00
1005;DHT22;491;53.480;10.174;2023-04-03T08:55:37;18.90;1.00
1005;DHT22;491;53.480;10.174;2023-04-03T08:58:12;18.80;1.00
1005;DHT22;491;53.480;10.174;2023-04-03T09:03:32;20.10;1.00
1005;DHT22;491;53.480;10.174;2023-04-03T09:06:12;20.80;1.00
1005;DHT22;491;53.480;10.174;2023-04-03T09:09:02;20.90;1.00
1005;DHT22;491;53.480;10.174;2023-04-03T09:14:53;21.10;1.00
1005;DHT22;491;53.480;10.174;2023-04-03T09:17:28;21.20;1.00
1005;DHT22;491;53.480;10.174;2023-04-03T09:20:06;21.50;1.00
1005;DHT22;491;53.480;10.174;2023-04-03T09:22:33;22.10;1.00
1005;DHT22;491;53.480;10.174;2023-04-03T09:28:03;22.10;1.00
1005;DHT22;491;53.480;10.174;2023-04-03T09:30:29;22.10;1.00
1005;DHT22;491;53.480;10.174;2023-04-03T09:32:56;22.40;1.00
1005;DHT22;491;53.480;10.174;2023-04-03T09:35:33;22.80;1.00
1005;DHT22;491;53.480;10.174;2023-04-03T09:38:20;22.70;1.00
1005;DHT22;491;53.480;10.174;2023-04-03T09:41:02;22.40;1.00
1005;DHT22;491;53.480;10.174;2023-04-03T09:43:32;22.10;1.00
1005;DHT22;491;53.480;10.174;2023-04-03T09:46:18;22.50;1.00
1005;DHT22;491;53.480;10.174;2023-04-03T09:49:04;22.70;1.00
1005;DHT22;491;53.480;10.174;2023-04-03T09:51:31;22.50;1.00
1005;DHT22;491;53.480;10.174;2023-04-03T09:53:58;22.20;1.00
1005;DHT22;491;53.480;10.174;2023-04-03T09:56:28;22.60;1.00
1005;DHT22;491;53.480;10.174;2023-04-03T09:59:08;22.90;1.00
1005;DHT22;491;53.480;10.174;2023-04-03T10:01:40;23.20;1.00
1005;DHT22;491;53.480;10.174;2023-04-03T10:06:42;22.80;1.00
1005;DHT22;491;53.480;10.174;2023-04-03T10:09:22;23.10;1.00
1005;DHT22;491;53.480;10.174;2023-04-03T10:14:22;22.20;1.00
1005;DHT22;491;53.480;10.174;2023-04-03T10:16:53;21.80;1.00
1005;DHT22;491;53.480;10.174;2023-04-03T10:19:40;21.50;1.00
1005;DHT22;491;53.480;10.174;2023-04-03T10:22:24;21.70;1.00
1005;DHT22;491;53.480;10.174;2023-04-03T10:36:19;19.50;1.00
1005;DHT22;491;53.480;10.174;2023-04-03T10:39:11;18.60;1.00
1005;DHT22;491;53.480;10.174;2023-04-03T10:45:19;17.60;1.00
1005;DHT22;491;53.480;10.174;2023-04-03T10:51:18;19.10;1.00
1005;DHT22;491;53.480;10.174;2023-04-03T10:54:26;19.20;1.00
1005;DHT22;491;53.480;10.174;2023-04-03T10:57:05;18.40;1.00
1005;DHT22;491;53.480;10.174;2023-04-03T11:00:05;17.40;1.00
1005;DHT22;491;53.480;10.174;2023-04-03T11:02:48;16.60;1.00
1005;DHT22;491;53.480;10.174;2023-04-03T11:07:53;14.30;1.00
1005;DHT22;491;53.480;10.174;2023-04-03T11:10:36;14.10;1.00
1005;DHT22;491;53.480;10.174;2023-04-03T11:13:37;14.80;1.00
1005;DHT22;491;53.480;10.174;2023-04-03T11:16:08;14.70;1.00
1005;DHT22;491;53.480;10.174;2023-04-03T11:26:59;18.80;1.00
1005;DHT22;491;53.480;10.174;2023-04-03T11:29:41;18.80;1.00
1005;DHT22;491;53.480;10.174;2023-04-03T11:32:29;17.70;1.00
1005;DHT22;491;53.480;10.174;2023-04-03T11:35:01;15.60;1.00
1005;DHT22;491;53.480;10.174;2023-04-03T11:38:10;14.90;1.00
1005;DHT22;491;53.480;10.174;2023-04-03T11:40:44;15.20;1.00
1005;DHT22;491;53.480;10.174;2023-04-03T12:11:48;20.30;1.00
1005;DHT22;491;53.480;10.174;2023-04-03T12:14:17;19.30;1.00
1005;DHT22;491;53.480;10.174;2023-04-03T12:16:46;19.50;1.00
